Terminal Aerodrome Forecast
Issued by NWS Charleston, SC

Home | Current Version | Previous Version | Text Only | Print | Product List | Glossary On
Versions: 1 2 3 4 5 6 7 8 9 10 11 12 13 14
883
FTUS42 KCHS 131725
TAFSAV
TAF
KSAV 131725Z 1318/1418 33011G17KT P6SM SKC
     FM132200 02005KT P6SM SKC
     FM141300 04010KT P6SM SKC=

USA.gov is the U.S. government's official web portal to all federal, state and local government web resources and services.